Terminal Aerodrome Forecast
Issued by NWS

Home | Current Version | Previous Version | Text Only | Print | Product List | Glossary On
Versions: 1 2 3 4 5 6 7 8 9 10 11 12 13 14 15 16 17 18 19 20 21 22 23 24 25 26 27 28 29
000
FTUS44 KFWD 011100
TAFFTW
TAF
KFTW 011136Z 0112/0212 22008KT 3SM BR OVC014
      TEMPO 0112/0115 1SM -SHRA OVC005
     FM011500 30012KT P6SM OVC015
     FM011800 33018KT P6SM OVC023
     FM012000 34018G28KT P6SM FEW035 SCT120
     FM020100 35012KT P6SM SKC=

USA.gov is the U.S. government's official web portal to all federal, state and local government web resources and services.